Ana Sayfa
METAR-TAF:

METAR-TAF

Havaalanları :

Base Presidente Eduardo Frei Montalva, Şili

Enlem: 62-11-28S, Boylam: 58-59-11W, yükseklik: 45 m

Güncel hava durumu gözlemi

Rapor saat 03:00 UTC de 2 saat ve 10 dakika önce yapıldı.
Rüzgar batı/güneybatıdan 40 kt ve 50 kt'a kadar ani rüzgarlar
Sıcaklık -2°C
Nem 80%
Basınç 998 hPa
Görüş mesafesi: 1200 m
2300 ft yükseklikte çok bulutlu
Pus

METAR: SCRM 170300Z 24040G50KT 1200 BR OVC023 M02/M05 Q0998 NOSIG

Saat: 01:10 (05:10 UTC)


TAF: eksik

4.000'den fazla havaalanı için hava durumu gözlemleri ve tahminleri (METAR ve TAF raporları).

Kullanılabilir istasyonlar harita üzerinde sarı ve kırmızı noktalarla gösterilir.

İstasyonun adını görmek için fareyi noktanın üzerinde gezdirin.

Sonrasında hava gözlem ve tahminlerini görmek için tıklayın.

Haritayı değiştirmek için: yaklaştırmak için siyah artı işaretli yeşil düğmeye ve uzaklaştırmak için de eksi işaretli düğmeye hızla tıklayın; bitişik haritalar için yeşil okları kullanın.


METAR-TAF: